sensor_id;sensor_type;location;lat;lon;timestamp;P1;durP1;ratioP1;P2;durP2;ratioP2
28437;SDS011;15667;52.376;9.708;2023-11-21T00:01:04;27.75;;;7.30;;
28437;SDS011;15667;52.376;9.708;2023-11-21T00:03:30;23.33;;;7.15;;
28437;SDS011;15667;52.376;9.708;2023-11-21T00:05:56;23.40;;;7.65;;
28437;SDS011;15667;52.376;9.708;2023-11-21T00:08:22;25.45;;;7.60;;
28437;SDS011;15667;52.376;9.708;2023-11-21T00:10:48;19.38;;;7.22;;
28437;SDS011;15667;52.376;9.708;2023-11-21T00:13:13;20.42;;;6.93;;
28437;SDS011;15667;52.376;9.708;2023-11-21T00:15:39;25.52;;;7.57;;
28437;SDS011;15667;52.376;9.708;2023-11-21T00:18:05;23.98;;;7.57;;
28437;SDS011;15667;52.376;9.708;2023-11-21T00:20:31;24.75;;;7.45;;
28437;SDS011;15667;52.376;9.708;2023-11-21T00:22:57;28.52;;;8.75;;
28437;SDS011;15667;52.376;9.708;2023-11-21T00:25:24;23.52;;;7.53;;
28437;SDS011;15667;52.376;9.708;2023-11-21T00:27:50;26.13;;;8.75;;
28437;SDS011;15667;52.376;9.708;2023-11-21T00:30:15;19.58;;;7.57;;
28437;SDS011;15667;52.376;9.708;2023-11-21T00:32:41;25.17;;;8.45;;
28437;SDS011;15667;52.376;9.708;2023-11-21T00:35:07;25.17;;;8.20;;
28437;SDS011;15667;52.376;9.708;2023-11-21T00:37:33;27.20;;;8.40;;
28437;SDS011;15667;52.376;9.708;2023-11-21T00:39:58;26.70;;;8.32;;
28437;SDS011;15667;52.376;9.708;2023-11-21T00:42:24;24.52;;;8.93;;
28437;SDS011;15667;52.376;9.708;2023-11-21T00:44:50;29.00;;;8.45;;
28437;SDS011;15667;52.376;9.708;2023-11-21T00:47:15;20.45;;;8.13;;
28437;SDS011;15667;52.376;9.708;2023-11-21T00:49:41;22.25;;;8.77;;
28437;SDS011;15667;52.376;9.708;2023-11-21T00:52:09;29.67;;;9.52;;
28437;SDS011;15667;52.376;9.708;2023-11-21T00:54:35;25.27;;;8.38;;
28437;SDS011;15667;52.376;9.708;2023-11-21T00:57:01;24.75;;;8.73;;
28437;SDS011;15667;52.376;9.708;2023-11-21T00:59:26;27.38;;;9.60;;
28437;SDS011;15667;52.376;9.708;2023-11-21T01:01:52;27.92;;;9.18;;
28437;SDS011;15667;52.376;9.708;2023-11-21T01:04:19;29.20;;;9.15;;
28437;SDS011;15667;52.376;9.708;2023-11-21T01:06:44;27.80;;;9.68;;
28437;SDS011;15667;52.376;9.708;2023-11-21T01:09:10;24.50;;;9.43;;
28437;SDS011;15667;52.376;9.708;2023-11-21T01:11:36;30.42;;;10.18;;
28437;SDS011;15667;52.376;9.708;2023-11-21T01:14:02;33.55;;;10.20;;
28437;SDS011;15667;52.376;9.708;2023-11-21T01:16:29;38.47;;;10.73;;
28437;SDS011;15667;52.376;9.708;2023-11-21T01:18:54;28.48;;;9.48;;
28437;SDS011;15667;52.376;9.708;2023-11-21T01:21:20;29.67;;;9.82;;
28437;SDS011;15667;52.376;9.708;2023-11-21T01:23:46;32.80;;;11.00;;
28437;SDS011;15667;52.376;9.708;2023-11-21T01:26:12;30.73;;;10.32;;
28437;SDS011;15667;52.376;9.708;2023-11-21T01:28:38;35.15;;;9.63;;
28437;SDS011;15667;52.376;9.708;2023-11-21T01:31:03;28.42;;;10.32;;
28437;SDS011;15667;52.376;9.708;2023-11-21T01:33:29;33.83;;;9.80;;
28437;SDS011;15667;52.376;9.708;2023-11-21T01:35:55;33.72;;;10.23;;
28437;SDS011;15667;52.376;9.708;2023-11-21T01:38:21;27.88;;;10.43;;
28437;SDS011;15667;52.376;9.708;2023-11-21T01:40:47;30.40;;;10.68;;
28437;SDS011;15667;52.376;9.708;2023-11-21T01:43:13;33.65;;;11.88;;
28437;SDS011;15667;52.376;9.708;2023-11-21T01:45:38;29.35;;;10.82;;
28437;SDS011;15667;52.376;9.708;2023-11-21T01:48:04;28.52;;;11.07;;
28437;SDS011;15667;52.376;9.708;2023-11-21T01:50:31;29.15;;;11.25;;
28437;SDS011;15667;52.376;9.708;2023-11-21T01:52:58;41.75;;;13.10;;
28437;SDS011;15667;52.376;9.708;2023-11-21T01:55:25;33.72;;;10.60;;
28437;SDS011;15667;52.376;9.708;2023-11-21T01:57:52;40.17;;;11.68;;
28437;SDS011;15667;52.376;9.708;2023-11-21T02:00:19;34.00;;;11.40;;
28437;SDS011;15667;52.376;9.708;2023-11-21T02:02:45;32.38;;;11.20;;
28437;SDS011;15667;52.376;9.708;2023-11-21T02:05:12;30.08;;;10.85;;
28437;SDS011;15667;52.376;9.708;2023-11-21T02:07:40;34.70;;;11.80;;
28437;SDS011;15667;52.376;9.708;2023-11-21T02:10:07;32.00;;;12.32;;
28437;SDS011;15667;52.376;9.708;2023-11-21T02:12:34;35.13;;;11.25;;
28437;SDS011;15667;52.376;9.708;2023-11-21T02:15:00;38.45;;;12.60;;
28437;SDS011;15667;52.376;9.708;2023-11-21T02:17:30;39.63;;;13.13;;
28437;SDS011;15667;52.376;9.708;2023-11-21T02:19:57;37.05;;;12.18;;
28437;SDS011;15667;52.376;9.708;2023-11-21T02:22:23;34.35;;;12.68;;
28437;SDS011;15667;52.376;9.708;2023-11-21T02:24:55;39.17;;;13.68;;
28437;SDS011;15667;52.376;9.708;2023-11-21T02:27:22;39.05;;;12.65;;
28437;SDS011;15667;52.376;9.708;2023-11-21T02:29:49;39.03;;;12.95;;
28437;SDS011;15667;52.376;9.708;2023-11-21T02:32:14;40.15;;;13.18;;
28437;SDS011;15667;52.376;9.708;2023-11-21T02:34:42;39.53;;;13.45;;
28437;SDS011;15667;52.376;9.708;2023-11-21T02:37:08;44.22;;;13.80;;
28437;SDS011;15667;52.376;9.708;2023-11-21T02:39:35;43.92;;;13.32;;
28437;SDS011;15667;52.376;9.708;2023-11-21T02:42:00;35.50;;;13.02;;
28437;SDS011;15667;52.376;9.708;2023-11-21T02:44:26;46.13;;;14.25;;
28437;SDS011;15667;52.376;9.708;2023-11-21T02:46:52;40.08;;;13.45;;
28437;SDS011;15667;52.376;9.708;2023-11-21T02:49:17;38.13;;;13.40;;
28437;SDS011;15667;52.376;9.708;2023-11-21T02:51:43;39.80;;;13.77;;
28437;SDS011;15667;52.376;9.708;2023-11-21T02:54:08;37.50;;;13.57;;
28437;SDS011;15667;52.376;9.708;2023-11-21T02:56:35;44.15;;;14.40;;
28437;SDS011;15667;52.376;9.708;2023-11-21T02:59:00;43.33;;;15.00;;
28437;SDS011;15667;52.376;9.708;2023-11-21T03:01:26;42.33;;;13.52;;
28437;SDS011;15667;52.376;9.708;2023-11-21T03:03:53;47.38;;;14.98;;
28437;SDS011;15667;52.376;9.708;2023-11-21T03:06:20;38.30;;;14.40;;
28437;SDS011;15667;52.376;9.708;2023-11-21T03:08:47;44.55;;;15.40;;
28437;SDS011;15667;52.376;9.708;2023-11-21T03:11:13;45.83;;;14.40;;
28437;SDS011;15667;52.376;9.708;2023-11-21T03:13:39;37.90;;;13.40;;
28437;SDS011;15667;52.376;9.708;2023-11-21T03:16:07;51.85;;;15.73;;
28437;SDS011;15667;52.376;9.708;2023-11-21T03:18:37;40.80;;;14.32;;
28437;SDS011;15667;52.376;9.708;2023-11-21T03:21:04;47.38;;;14.63;;
28437;SDS011;15667;52.376;9.708;2023-11-21T03:23:30;47.00;;;15.20;;
28437;SDS011;15667;52.376;9.708;2023-11-21T03:25:56;43.20;;;15.25;;
28437;SDS011;15667;52.376;9.708;2023-11-21T03:28:22;44.53;;;15.15;;
28437;SDS011;15667;52.376;9.708;2023-11-21T03:30:48;46.28;;;14.57;;
28437;SDS011;15667;52.376;9.708;2023-11-21T03:33:14;45.25;;;14.50;;
28437;SDS011;15667;52.376;9.708;2023-11-21T03:35:40;52.13;;;16.10;;
28437;SDS011;15667;52.376;9.708;2023-11-21T03:38:07;46.95;;;15.30;;
28437;SDS011;15667;52.376;9.708;2023-11-21T03:40:33;45.33;;;15.57;;
28437;SDS011;15667;52.376;9.708;2023-11-21T03:42:58;50.60;;;16.00;;
28437;SDS011;15667;52.376;9.708;2023-11-21T03:45:24;40.75;;;15.10;;
28437;SDS011;15667;52.376;9.708;2023-11-21T03:47:49;54.17;;;17.20;;
28437;SDS011;15667;52.376;9.708;2023-11-21T03:50:15;58.85;;;17.65;;
28437;SDS011;15667;52.376;9.708;2023-11-21T03:52:41;54.15;;;17.17;;
28437;SDS011;15667;52.376;9.708;2023-11-21T03:55:07;53.58;;;17.50;;
28437;SDS011;15667;52.376;9.708;2023-11-21T03:57:33;55.78;;;17.83;;
28437;SDS011;15667;52.376;9.708;2023-11-21T03:59:59;49.00;;;16.40;;
28437;SDS011;15667;52.376;9.708;2023-11-21T04:02:25;51.13;;;16.98;;
28437;SDS011;15667;52.376;9.708;2023-11-21T04:04:52;65.15;;;16.35;;
28437;SDS011;15667;52.376;9.708;2023-11-21T04:07:17;46.53;;;17.00;;
28437;SDS011;15667;52.376;9.708;2023-11-21T04:09:43;63.15;;;17.60;;
28437;SDS011;15667;52.376;9.708;2023-11-21T04:12:09;63.60;;;18.85;;
28437;SDS011;15667;52.376;9.708;2023-11-21T04:14:34;63.50;;;17.63;;
28437;SDS011;15667;52.376;9.708;2023-11-21T04:17:00;56.35;;;18.52;;
28437;SDS011;15667;52.376;9.708;2023-11-21T04:19:26;53.17;;;18.92;;
28437;SDS011;15667;52.376;9.708;2023-11-21T04:21:52;64.43;;;18.80;;
28437;SDS011;15667;52.376;9.708;2023-11-21T04:24:17;53.72;;;18.52;;
28437;SDS011;15667;52.376;9.708;2023-11-21T04:26:43;67.78;;;19.42;;
28437;SDS011;15667;52.376;9.708;2023-11-21T04:29:09;61.92;;;20.00;;
28437;SDS011;15667;52.376;9.708;2023-11-21T04:31:35;61.83;;;19.23;;
28437;SDS011;15667;52.376;9.708;2023-11-21T04:34:01;63.95;;;20.08;;
28437;SDS011;15667;52.376;9.708;2023-11-21T04:36:29;70.10;;;19.40;;
28437;SDS011;15667;52.376;9.708;2023-11-21T04:38:55;63.45;;;19.33;;
28437;SDS011;15667;52.376;9.708;2023-11-21T04:41:21;62.97;;;18.75;;
28437;SDS011;15667;52.376;9.708;2023-11-21T04:43:47;62.63;;;18.42;;
28437;SDS011;15667;52.376;9.708;2023-11-21T04:46:14;61.47;;;19.42;;
28437;SDS011;15667;52.376;9.708;2023-11-21T04:48:39;55.45;;;18.35;;
28437;SDS011;15667;52.376;9.708;2023-11-21T04:51:05;54.72;;;17.85;;
28437;SDS011;15667;52.376;9.708;2023-11-21T04:53:31;70.80;;;18.98;;
28437;SDS011;15667;52.376;9.708;2023-11-21T04:55:57;60.08;;;18.55;;
28437;SDS011;15667;52.376;9.708;2023-11-21T04:58:23;62.25;;;18.42;;
28437;SDS011;15667;52.376;9.708;2023-11-21T05:00:49;58.95;;;18.77;;
28437;SDS011;15667;52.376;9.708;2023-11-21T05:03:15;57.83;;;18.13;;
28437;SDS011;15667;52.376;9.708;2023-11-21T05:05:40;50.38;;;17.17;;
28437;SDS011;15667;52.376;9.708;2023-11-21T05:08:06;57.65;;;17.52;;
28437;SDS011;15667;52.376;9.708;2023-11-21T05:10:31;48.95;;;16.00;;
28437;SDS011;15667;52.376;9.708;2023-11-21T05:12:57;43.70;;;16.30;;
28437;SDS011;15667;52.376;9.708;2023-11-21T05:15:23;44.63;;;15.10;;
28437;SDS011;15667;52.376;9.708;2023-11-21T05:17:49;47.05;;;14.73;;
28437;SDS011;15667;52.376;9.708;2023-11-21T05:20:17;44.03;;;15.35;;
28437;SDS011;15667;52.376;9.708;2023-11-21T05:22:46;38.30;;;13.65;;
28437;SDS011;15667;52.376;9.708;2023-11-21T05:25:15;47.15;;;15.50;;
28437;SDS011;15667;52.376;9.708;2023-11-21T05:27:43;48.05;;;14.95;;
28437;SDS011;15667;52.376;9.708;2023-11-21T05:30:10;45.85;;;14.35;;
28437;SDS011;15667;52.376;9.708;2023-11-21T05:32:37;47.28;;;14.30;;
28437;SDS011;15667;52.376;9.708;2023-11-21T05:35:04;53.13;;;15.93;;
28437;SDS011;15667;52.376;9.708;2023-11-21T05:37:37;48.15;;;14.52;;
28437;SDS011;15667;52.376;9.708;2023-11-21T05:40:06;43.88;;;14.68;;
28437;SDS011;15667;52.376;9.708;2023-11-21T05:42:36;44.85;;;13.93;;
28437;SDS011;15667;52.376;9.708;2023-11-21T05:45:03;45.92;;;14.43;;
28437;SDS011;15667;52.376;9.708;2023-11-21T05:47:45;45.42;;;14.52;;
28437;SDS011;15667;52.376;9.708;2023-11-21T05:50:12;37.22;;;12.43;;
28437;SDS011;15667;52.376;9.708;2023-11-21T05:52:40;41.30;;;12.82;;
28437;SDS011;15667;52.376;9.708;2023-11-21T05:55:07;43.75;;;12.85;;
28437;SDS011;15667;52.376;9.708;2023-11-21T05:57:34;39.38;;;12.48;;
28437;SDS011;15667;52.376;9.708;2023-11-21T06:00:05;34.20;;;11.82;;
28437;SDS011;15667;52.376;9.708;2023-11-21T06:02:43;37.00;;;12.27;;
28437;SDS011;15667;52.376;9.708;2023-11-21T06:05:10;36.13;;;12.68;;
28437;SDS011;15667;52.376;9.708;2023-11-21T06:07:36;35.65;;;11.23;;
28437;SDS011;15667;52.376;9.708;2023-11-21T06:10:03;38.72;;;11.20;;
28437;SDS011;15667;52.376;9.708;2023-11-21T06:12:37;36.85;;;11.13;;
28437;SDS011;15667;52.376;9.708;2023-11-21T06:15:05;33.08;;;10.43;;
28437;SDS011;15667;52.376;9.708;2023-11-21T06:17:33;35.75;;;12.02;;
28437;SDS011;15667;52.376;9.708;2023-11-21T06:20:03;30.60;;;11.10;;
28437;SDS011;15667;52.376;9.708;2023-11-21T06:22:34;35.28;;;11.85;;
28437;SDS011;15667;52.376;9.708;2023-11-21T06:25:01;34.80;;;11.95;;
28437;SDS011;15667;52.376;9.708;2023-11-21T06:27:27;35.53;;;11.15;;
28437;SDS011;15667;52.376;9.708;2023-11-21T06:29:53;33.58;;;11.65;;
28437;SDS011;15667;52.376;9.708;2023-11-21T06:32:19;32.30;;;11.65;;
28437;SDS011;15667;52.376;9.708;2023-11-21T06:34:47;43.08;;;11.80;;
28437;SDS011;15667;52.376;9.708;2023-11-21T06:37:14;33.00;;;10.70;;
28437;SDS011;15667;52.376;9.708;2023-11-21T06:39:42;35.65;;;11.98;;
28437;SDS011;15667;52.376;9.708;2023-11-21T06:42:09;35.88;;;12.18;;
28437;SDS011;15667;52.376;9.708;2023-11-21T06:44:34;30.35;;;11.05;;
28437;SDS011;15667;52.376;9.708;2023-11-21T06:47:01;33.00;;;10.32;;
28437;SDS011;15667;52.376;9.708;2023-11-21T06:49:27;22.35;;;8.68;;
28437;SDS011;15667;52.376;9.708;2023-11-21T06:51:52;21.60;;;7.88;;
28437;SDS011;15667;52.376;9.708;2023-11-21T06:54:19;14.32;;;7.03;;
28437;SDS011;15667;52.376;9.708;2023-11-21T06:56:45;16.33;;;6.22;;
28437;SDS011;15667;52.376;9.708;2023-11-21T06:59:12;14.48;;;6.15;;
28437;SDS011;15667;52.376;9.708;2023-11-21T07:01:38;35.05;;;11.68;;
28437;SDS011;15667;52.376;9.708;2023-11-21T07:04:06;21.77;;;8.90;;
28437;SDS011;15667;52.376;9.708;2023-11-21T07:06:32;14.38;;;7.38;;
28437;SDS011;15667;52.376;9.708;2023-11-21T07:08:58;13.63;;;6.88;;
28437;SDS011;15667;52.376;9.708;2023-11-21T07:11:28;18.25;;;7.00;;
28437;SDS011;15667;52.376;9.708;2023-11-21T07:13:57;15.38;;;6.85;;
28437;SDS011;15667;52.376;9.708;2023-11-21T07:16:23;13.98;;;6.13;;
28437;SDS011;15667;52.376;9.708;2023-11-21T07:18:50;13.25;;;5.90;;
28437;SDS011;15667;52.376;9.708;2023-11-21T07:21:16;16.92;;;6.72;;
28437;SDS011;15667;52.376;9.708;2023-11-21T07:23:42;13.70;;;6.00;;
28437;SDS011;15667;52.376;9.708;2023-11-21T07:26:07;12.75;;;6.10;;
28437;SDS011;15667;52.376;9.708;2023-11-21T07:28:34;13.40;;;6.03;;
28437;SDS011;15667;52.376;9.708;2023-11-21T07:31:00;13.35;;;5.93;;
28437;SDS011;15667;52.376;9.708;2023-11-21T07:33:26;11.18;;;5.75;;
28437;SDS011;15667;52.376;9.708;2023-11-21T07:35:52;12.60;;;5.80;;
28437;SDS011;15667;52.376;9.708;2023-11-21T07:38:18;14.43;;;6.07;;
28437;SDS011;15667;52.376;9.708;2023-11-21T07:40:44;12.82;;;6.15;;
28437;SDS011;15667;52.376;9.708;2023-11-21T07:43:09;12.40;;;6.28;;
28437;SDS011;15667;52.376;9.708;2023-11-21T07:45:35;10.88;;;5.72;;
28437;SDS011;15667;52.376;9.708;2023-11-21T07:48:01;13.18;;;6.32;;
28437;SDS011;15667;52.376;9.708;2023-11-21T07:50:28;12.07;;;5.88;;
28437;SDS011;15667;52.376;9.708;2023-11-21T07:52:54;12.20;;;5.88;;
28437;SDS011;15667;52.376;9.708;2023-11-21T07:55:20;15.80;;;6.43;;
28437;SDS011;15667;52.376;9.708;2023-11-21T07:57:55;16.17;;;7.18;;
28437;SDS011;15667;52.376;9.708;2023-11-21T08:00:21;13.45;;;6.32;;
28437;SDS011;15667;52.376;9.708;2023-11-21T08:02:49;14.98;;;7.20;;
28437;SDS011;15667;52.376;9.708;2023-11-21T08:05:21;18.65;;;7.97;;
28437;SDS011;15667;52.376;9.708;2023-11-21T08:07:51;14.60;;;7.15;;
28437;SDS011;15667;52.376;9.708;2023-11-21T08:10:16;22.30;;;8.45;;
28437;SDS011;15667;52.376;9.708;2023-11-21T08:12:42;20.45;;;9.48;;
28437;SDS011;15667;52.376;9.708;2023-11-21T08:15:08;19.88;;;9.30;;
28437;SDS011;15667;52.376;9.708;2023-11-21T08:17:35;20.43;;;9.70;;
28437;SDS011;15667;52.376;9.708;2023-11-21T08:20:01;25.70;;;9.70;;
28437;SDS011;15667;52.376;9.708;2023-11-21T08:22:28;22.65;;;10.18;;
28437;SDS011;15667;52.376;9.708;2023-11-21T08:24:54;22.65;;;10.75;;
28437;SDS011;15667;52.376;9.708;2023-11-21T08:27:20;23.13;;;10.52;;
28437;SDS011;15667;52.376;9.708;2023-11-21T08:29:46;20.70;;;10.38;;
28437;SDS011;15667;52.376;9.708;2023-11-21T08:32:12;27.15;;;11.02;;
28437;SDS011;15667;52.376;9.708;2023-11-21T08:34:37;24.55;;;10.75;;
28437;SDS011;15667;52.376;9.708;2023-11-21T08:37:05;27.13;;;11.05;;
28437;SDS011;15667;52.376;9.708;2023-11-21T08:39:30;25.33;;;11.48;;
28437;SDS011;15667;52.376;9.708;2023-11-21T08:41:57;26.80;;;11.75;;
28437;SDS011;15667;52.376;9.708;2023-11-21T08:44:22;24.65;;;11.38;;
28437;SDS011;15667;52.376;9.708;2023-11-21T08:46:48;28.73;;;12.85;;
28437;SDS011;15667;52.376;9.708;2023-11-21T08:49:14;25.85;;;11.68;;
28437;SDS011;15667;52.376;9.708;2023-11-21T08:51:40;24.63;;;12.25;;
28437;SDS011;15667;52.376;9.708;2023-11-21T08:54:06;25.17;;;11.68;;
28437;SDS011;15667;52.376;9.708;2023-11-21T08:56:34;23.45;;;11.13;;
28437;SDS011;15667;52.376;9.708;2023-11-21T08:59:00;25.73;;;10.45;;
28437;SDS011;15667;52.376;9.708;2023-11-21T09:01:27;23.85;;;10.52;;
28437;SDS011;15667;52.376;9.708;2023-11-21T09:03:53;20.20;;;10.35;;
28437;SDS011;15667;52.376;9.708;2023-11-21T09:06:19;20.75;;;9.80;;
28437;SDS011;15667;52.376;9.708;2023-11-21T09:08:45;23.75;;;10.02;;
28437;SDS011;15667;52.376;9.708;2023-11-21T09:11:11;21.40;;;9.88;;
28437;SDS011;15667;52.376;9.708;2023-11-21T09:13:39;18.33;;;9.45;;
28437;SDS011;15667;52.376;9.708;2023-11-21T09:16:05;19.88;;;9.73;;
28437;SDS011;15667;52.376;9.708;2023-11-21T09:18:31;22.33;;;9.70;;
28437;SDS011;15667;52.376;9.708;2023-11-21T09:20:57;17.63;;;8.77;;
28437;SDS011;15667;52.376;9.708;2023-11-21T09:23:23;17.92;;;8.73;;
28437;SDS011;15667;52.376;9.708;2023-11-21T09:25:49;15.75;;;8.43;;
28437;SDS011;15667;52.376;9.708;2023-11-21T09:28:17;17.65;;;8.23;;
28437;SDS011;15667;52.376;9.708;2023-11-21T09:30:43;16.38;;;8.82;;
28437;SDS011;15667;52.376;9.708;2023-11-21T09:33:09;16.58;;;8.30;;
28437;SDS011;15667;52.376;9.708;2023-11-21T09:35:37;14.75;;;7.70;;
28437;SDS011;15667;52.376;9.708;2023-11-21T09:38:03;31.02;;;13.82;;
28437;SDS011;15667;52.376;9.708;2023-11-21T09:40:35;18.50;;;10.18;;
28437;SDS011;15667;52.376;9.708;2023-11-21T09:43:00;16.90;;;8.40;;
28437;SDS011;15667;52.376;9.708;2023-11-21T09:45:34;16.75;;;8.32;;
28437;SDS011;15667;52.376;9.708;2023-11-21T09:48:01;13.63;;;7.55;;
28437;SDS011;15667;52.376;9.708;2023-11-21T09:50:27;12.93;;;7.68;;
28437;SDS011;15667;52.376;9.708;2023-11-21T09:55:44;14.30;;;6.78;;
28437;SDS011;15667;52.376;9.708;2023-11-21T09:58:11;13.98;;;7.30;;
28437;SDS011;15667;52.376;9.708;2023-11-21T10:00:43;13.57;;;7.57;;
28437;SDS011;15667;52.376;9.708;2023-11-21T10:03:10;14.00;;;7.22;;
28437;SDS011;15667;52.376;9.708;2023-11-21T10:05:37;12.63;;;7.45;;
28437;SDS011;15667;52.376;9.708;2023-11-21T10:08:07;13.18;;;7.15;;
28437;SDS011;15667;52.376;9.708;2023-11-21T10:10:35;14.07;;;7.60;;
28437;SDS011;15667;52.376;9.708;2023-11-21T10:13:03;21.58;;;11.10;;
28437;SDS011;15667;52.376;9.708;2023-11-21T10:15:35;14.43;;;7.28;;
28437;SDS011;15667;52.376;9.708;2023-11-21T10:18:05;19.63;;;8.63;;
28437;SDS011;15667;52.376;9.708;2023-11-21T10:20:32;13.13;;;6.07;;
28437;SDS011;15667;52.376;9.708;2023-11-21T10:22:59;11.82;;;6.32;;
28437;SDS011;15667;52.376;9.708;2023-11-21T10:25:29;15.23;;;6.60;;
28437;SDS011;15667;52.376;9.708;2023-11-21T10:27:59;11.05;;;6.05;;
28437;SDS011;15667;52.376;9.708;2023-11-21T10:30:33;11.40;;;6.05;;
28437;SDS011;15667;52.376;9.708;2023-11-21T10:33:06;12.43;;;7.00;;
28437;SDS011;15667;52.376;9.708;2023-11-21T10:35:39;12.97;;;6.33;;
28437;SDS011;15667;52.376;9.708;2023-11-21T10:38:11;12.70;;;7.63;;
28437;SDS011;15667;52.376;9.708;2023-11-21T10:40:40;9.85;;;6.43;;
28437;SDS011;15667;52.376;9.708;2023-11-21T10:43:07;9.63;;;5.68;;
28437;SDS011;15667;52.376;9.708;2023-11-21T10:45:38;11.80;;;7.03;;
28437;SDS011;15667;52.376;9.708;2023-11-21T10:48:07;11.73;;;5.80;;
28437;SDS011;15667;52.376;9.708;2023-11-21T10:50:43;11.52;;;6.10;;
28437;SDS011;15667;52.376;9.708;2023-11-21T10:53:12;9.63;;;5.47;;
28437;SDS011;15667;52.376;9.708;2023-11-21T10:55:38;10.27;;;5.40;;
28437;SDS011;15667;52.376;9.708;2023-11-21T10:58:04;10.38;;;5.22;;
28437;SDS011;15667;52.376;9.708;2023-11-21T11:00:31;9.90;;;5.13;;
28437;SDS011;15667;52.376;9.708;2023-11-21T11:02:58;9.05;;;5.00;;
28437;SDS011;15667;52.376;9.708;2023-11-21T11:05:27;7.22;;;5.00;;
28437;SDS011;15667;52.376;9.708;2023-11-21T11:08:04;8.43;;;4.82;;
28437;SDS011;15667;52.376;9.708;2023-11-21T11:10:31;7.53;;;4.60;;
28437;SDS011;15667;52.376;9.708;2023-11-21T11:12:57;8.60;;;4.70;;
28437;SDS011;15667;52.376;9.708;2023-11-21T11:15:27;12.32;;;5.07;;
28437;SDS011;15667;52.376;9.708;2023-11-21T11:17:53;12.00;;;6.00;;
28437;SDS011;15667;52.376;9.708;2023-11-21T11:20:22;12.48;;;5.90;;
28437;SDS011;15667;52.376;9.708;2023-11-21T11:22:58;10.18;;;5.65;;
28437;SDS011;15667;52.376;9.708;2023-11-21T11:28:22;13.48;;;5.35;;
28437;SDS011;15667;52.376;9.708;2023-11-21T11:33:53;20.98;;;8.90;;
28437;SDS011;15667;52.376;9.708;2023-11-21T11:36:29;8.05;;;4.78;;
28437;SDS011;15667;52.376;9.708;2023-11-21T11:39:03;9.10;;;4.63;;
28437;SDS011;15667;52.376;9.708;2023-11-21T11:41:48;9.35;;;4.72;;
28437;SDS011;15667;52.376;9.708;2023-11-21T11:44:58;8.20;;;4.82;;
28437;SDS011;15667;52.376;9.708;2023-11-21T11:47:31;7.88;;;4.68;;
28437;SDS011;15667;52.376;9.708;2023-11-21T11:50:03;7.90;;;4.53;;
28437;SDS011;15667;52.376;9.708;2023-11-21T11:52:36;7.57;;;4.47;;
28437;SDS011;15667;52.376;9.708;2023-11-21T11:55:05;8.50;;;4.72;;
28437;SDS011;15667;52.376;9.708;2023-11-21T11:57:45;7.63;;;4.88;;
28437;SDS011;15667;52.376;9.708;2023-11-21T12:02:53;9.48;;;5.05;;
28437;SDS011;15667;52.376;9.708;2023-11-21T12:05:20;9.57;;;5.82;;
28437;SDS011;15667;52.376;9.708;2023-11-21T12:07:48;9.10;;;4.80;;
28437;SDS011;15667;52.376;9.708;2023-11-21T12:10:15;8.15;;;4.55;;
28437;SDS011;15667;52.376;9.708;2023-11-21T12:12:49;8.18;;;4.30;;
28437;SDS011;15667;52.376;9.708;2023-11-21T12:15:17;8.13;;;4.43;;
28437;SDS011;15667;52.376;9.708;2023-11-21T12:17:44;5.93;;;3.90;;
28437;SDS011;15667;52.376;9.708;2023-11-21T12:20:13;7.80;;;4.10;;
28437;SDS011;15667;52.376;9.708;2023-11-21T12:22:49;6.57;;;3.80;;
28437;SDS011;15667;52.376;9.708;2023-11-21T12:25:16;5.80;;;3.65;;
28437;SDS011;15667;52.376;9.708;2023-11-21T12:27:46;5.50;;;3.70;;
28437;SDS011;15667;52.376;9.708;2023-11-21T12:30:14;6.18;;;3.85;;
28437;SDS011;15667;52.376;9.708;2023-11-21T12:32:42;7.25;;;3.70;;
28437;SDS011;15667;52.376;9.708;2023-11-21T12:35:09;6.65;;;4.10;;
28437;SDS011;15667;52.376;9.708;2023-11-21T12:37:37;8.02;;;4.63;;
28437;SDS011;15667;52.376;9.708;2023-11-21T12:40:07;7.82;;;4.60;;
28437;SDS011;15667;52.376;9.708;2023-11-21T12:42:36;8.23;;;4.45;;
28437;SDS011;15667;52.376;9.708;2023-11-21T12:45:18;9.68;;;4.32;;
28437;SDS011;15667;52.376;9.708;2023-11-21T12:47:49;8.80;;;5.10;;
28437;SDS011;15667;52.376;9.708;2023-11-21T12:50:25;8.20;;;4.65;;
28437;SDS011;15667;52.376;9.708;2023-11-21T12:53:01;9.57;;;4.63;;
28437;SDS011;15667;52.376;9.708;2023-11-21T12:55:41;7.65;;;4.50;;
28437;SDS011;15667;52.376;9.708;2023-11-21T12:58:08;8.75;;;4.55;;
28437;SDS011;15667;52.376;9.708;2023-11-21T13:00:45;7.55;;;4.40;;
28437;SDS011;15667;52.376;9.708;2023-11-21T13:03:12;9.15;;;4.70;;
28437;SDS011;15667;52.376;9.708;2023-11-21T13:05:43;8.30;;;4.70;;
28437;SDS011;15667;52.376;9.708;2023-11-21T13:08:11;8.02;;;4.90;;
28437;SDS011;15667;52.376;9.708;2023-11-21T13:10:42;20.83;;;5.35;;
28437;SDS011;15667;52.376;9.708;2023-11-21T13:13:12;9.90;;;4.82;;
28437;SDS011;15667;52.376;9.708;2023-11-21T13:15:47;7.43;;;4.40;;
28437;SDS011;15667;52.376;9.708;2023-11-21T13:18:14;10.80;;;4.95;;
28437;SDS011;15667;52.376;9.708;2023-11-21T13:20:41;7.63;;;4.60;;
28437;SDS011;15667;52.376;9.708;2023-11-21T13:23:08;8.35;;;4.70;;
28437;SDS011;15667;52.376;9.708;2023-11-21T13:25:44;6.88;;;4.45;;
28437;SDS011;15667;52.376;9.708;2023-11-21T13:28:23;6.68;;;3.75;;
28437;SDS011;15667;52.376;9.708;2023-11-21T13:31:03;8.70;;;4.85;;
28437;SDS011;15667;52.376;9.708;2023-11-21T13:33:45;9.63;;;4.95;;
28437;SDS011;15667;52.376;9.708;2023-11-21T13:36:19;8.20;;;4.65;;
28437;SDS011;15667;52.376;9.708;2023-11-21T13:38:48;8.50;;;4.30;;
28437;SDS011;15667;52.376;9.708;2023-11-21T13:41:15;7.55;;;4.82;;
28437;SDS011;15667;52.376;9.708;2023-11-21T13:43:42;9.00;;;4.70;;
28437;SDS011;15667;52.376;9.708;2023-11-21T13:46:13;10.80;;;5.30;;
28437;SDS011;15667;52.376;9.708;2023-11-21T13:48:42;8.68;;;4.88;;
28437;SDS011;15667;52.376;9.708;2023-11-21T13:51:12;7.63;;;4.20;;
28437;SDS011;15667;52.376;9.708;2023-11-21T13:53:45;7.03;;;4.72;;
28437;SDS011;15667;52.376;9.708;2023-11-21T13:56:14;8.65;;;4.53;;
28437;SDS011;15667;52.376;9.708;2023-11-21T13:58:44;10.77;;;4.38;;
28437;SDS011;15667;52.376;9.708;2023-11-21T14:01:16;6.85;;;4.22;;
28437;SDS011;15667;52.376;9.708;2023-11-21T14:04:04;6.97;;;4.15;;
28437;SDS011;15667;52.376;9.708;2023-11-21T14:06:50;7.93;;;4.70;;
28437;SDS011;15667;52.376;9.708;2023-11-21T14:09:20;7.47;;;4.13;;
28437;SDS011;15667;52.376;9.708;2023-11-21T14:11:51;6.95;;;4.10;;
28437;SDS011;15667;52.376;9.708;2023-11-21T14:14:19;7.80;;;3.95;;
28437;SDS011;15667;52.376;9.708;2023-11-21T14:16:45;7.18;;;4.00;;
28437;SDS011;15667;52.376;9.708;2023-11-21T14:19:11;4.97;;;3.45;;
28437;SDS011;15667;52.376;9.708;2023-11-21T14:21:43;9.70;;;3.65;;
28437;SDS011;15667;52.376;9.708;2023-11-21T14:24:10;6.93;;;3.97;;
28437;SDS011;15667;52.376;9.708;2023-11-21T14:26:38;7.35;;;3.95;;
28437;SDS011;15667;52.376;9.708;2023-11-21T14:29:05;9.07;;;4.13;;
28437;SDS011;15667;52.376;9.708;2023-11-21T14:31:31;9.20;;;4.35;;
28437;SDS011;15667;52.376;9.708;2023-11-21T14:33:57;8.50;;;4.45;;
28437;SDS011;15667;52.376;9.708;2023-11-21T14:36:22;6.25;;;4.13;;
28437;SDS011;15667;52.376;9.708;2023-11-21T14:39:34;10.23;;;4.47;;
28437;SDS011;15667;52.376;9.708;2023-11-21T14:42:04;7.05;;;4.63;;
28437;SDS011;15667;52.376;9.708;2023-11-21T14:44:32;7.05;;;4.80;;
28437;SDS011;15667;52.376;9.708;2023-11-21T14:47:03;8.20;;;5.15;;